Time;durP1;ratioP1;P1;durP2;ratioP2;P2;SDS_P1;SDS_P2;PMS_P1;PMS_P2;Temp;Humidity;BMP_temperature;BMP_pressure;BME280_temperature;BME280_humidity;BME280_pressure;Samples;Min_cycle;Max_cycle;Signal;HPM_P1;HPM_P2
2023/09/08 00:01:37;;;;;;;2.13;1.55;;;19.00;99.90;;;;;;5094175;28;20403;-67
2023/09/08 00:04:04;;;;;;;1.58;1.48;;;18.40;99.90;;;;;;5094179;28;20109;-67
2023/09/08 00:06:29;;;;;;;1.40;1.30;;;18.30;99.90;;;;;;5093743;28;20044;-67
2023/09/08 00:08:55;;;;;;;1.80;1.70;;;18.20;99.90;;;;;;5094116;28;20051;-67
2023/09/08 00:11:20;;;;;;;1.65;1.55;;;18.10;99.90;;;;;;5109448;28;20051;-67
2023/09/08 00:13:46;;;;;;;1.52;1.42;;;18.10;99.90;;;;;;5093891;28;20497;-67
2023/09/08 00:16:12;;;;;;;1.50;1.40;;;18.00;99.90;;;;;;5093915;28;20115;-67
2023/09/08 00:18:37;;;;;;;1.95;1.80;;;18.00;99.90;;;;;;5109430;28;20138;-68
2023/09/08 00:21:03;;;;;;;1.40;1.30;;;17.90;99.90;;;;;;5109292;28;20146;-68
2023/09/08 00:23:28;;;;;;;1.90;1.80;;;17.90;99.90;;;;;;5093185;28;20044;-67
2023/09/08 00:25:54;;;;;;;1.77;1.67;;;17.90;99.90;;;;;;5109210;28;20075;-67
2023/09/08 00:28:20;;;;;;;1.85;1.73;;;17.80;99.90;;;;;;5093450;28;20040;-67
2023/09/08 00:30:45;;;;;;;2.05;1.85;;;17.80;99.90;;;;;;5093624;28;20097;-67
2023/09/08 00:33:13;;;;;;;1.80;1.65;;;17.70;99.90;;;;;;5093344;28;20594;-67
2023/09/08 00:35:39;;;;;;;1.77;1.67;;;17.70;99.90;;;;;;5092169;28;20067;-68
2023/09/08 00:38:04;;;;;;;2.22;1.63;;;18.40;99.90;;;;;;5093602;28;20028;-68
2023/09/08 00:40:30;;;;;;;1.60;1.50;;;17.70;99.90;;;;;;5093631;28;20044;-64
2023/09/08 00:42:56;;;;;;;1.92;1.83;;;17.60;1.00;;;;;;5093204;28;20075;-64
2023/09/08 00:45:22;;;;;;;1.98;1.88;;;17.50;1.00;;;;;;5093471;28;20071;-64
2023/09/08 00:47:48;;;;;;;1.92;1.70;;;17.50;1.00;;;;;;5093194;28;20040;-65
2023/09/08 00:50:13;;;;;;;1.90;1.80;;;17.70;1.00;;;;;;5093288;28;20532;-65
2023/09/08 00:52:39;;;;;;;1.70;1.60;;;17.40;1.00;;;;;;5093422;28;20052;-65
2023/09/08 00:55:05;;;;;;;2.50;2.17;;;17.30;1.00;;;;;;5091829;28;20075;-64
2023/09/08 00:57:31;;;;;;;2.13;2.03;;;17.20;1.00;;;;;;5091788;28;20054;-65
2023/09/08 00:59:57;;;;;;;1.88;1.77;;;17.50;1.00;;;;;;5093334;28;20467;-64
2023/09/08 01:02:23;;;;;;;2.03;1.92;;;17.20;1.00;;;;;;5091762;28;20055;-64
2023/09/08 01:04:49;;;;;;;2.20;2.00;;;17.20;1.00;;;;;;5093030;28;20404;-64
2023/09/08 01:07:15;;;;;;;2.65;2.10;;;17.20;1.00;;;;;;5093112;28;20123;-64
2023/09/08 01:09:41;;;;;;;2.60;2.10;;;17.20;1.00;;;;;;5093307;28;20502;-64
2023/09/08 01:12:08;;;;;;;1.60;1.50;;;17.20;1.00;;;;;;5093045;28;20040;-64
2023/09/08 01:14:33;;;;;;;2.65;1.52;;;17.20;1.00;;;;;;5092764;28;20047;-64
2023/09/08 01:16:59;;;;;;;2.45;2.25;;;17.20;1.00;;;;;;5093083;28;20044;-64
2023/09/08 01:19:25;;;;;;;2.08;1.88;;;17.10;1.00;;;;;;5108502;28;20039;-65
2023/09/08 01:22:11;;;;;;;1.83;1.73;;;17.10;1.00;;;;;;5091556;28;20044;-65
2023/09/08 01:25:14;;;;;;;1.92;1.83;;;17.10;1.00;;;;;;5092773;28;20063;-66
2023/09/08 01:27:46;;;;;;;1.90;1.80;;;17.10;1.00;;;;;;5092646;28;20043;-64
2023/09/08 01:30:13;;;;;;;2.58;2.10;;;17.10;1.00;;;;;;5092910;28;20032;-64
2023/09/08 01:32:40;;;;;;;2.15;1.90;;;17.90;1.00;;;;;;5092886;28;20039;-64
2023/09/08 01:35:06;;;;;;;2.00;1.90;;;17.00;1.00;;;;;;5095389;28;20475;-64
2023/09/08 01:37:32;;;;;;;2.15;1.88;;;17.00;1.00;;;;;;5096723;28;20028;-66
2023/09/08 01:39:57;;;;;;;2.83;1.95;;;17.00;1.00;;;;;;5112450;28;20548;-65
2023/09/08 01:42:23;;;;;;;1.98;1.77;;;17.00;1.00;;;;;;5096884;28;20043;-64
2023/09/08 01:44:49;;;;;;;1.95;1.85;;;17.00;1.00;;;;;;5096695;28;20067;-65
2023/09/08 01:47:15;;;;;;;1.92;1.70;;;17.00;1.00;;;;;;5096818;28;20085;-64
2023/09/08 01:49:41;;;;;;;2.20;1.95;;;17.00;1.00;;;;;;5095342;28;20127;-67
2023/09/08 01:52:06;;;;;;;1.98;1.88;;;17.00;1.00;;;;;;5112146;28;20126;-64
2023/09/08 01:54:32;;;;;;;2.83;1.90;;;17.00;1.00;;;;;;5096663;28;20039;-66
2023/09/08 01:56:58;;;;;;;1.60;1.50;;;17.00;1.00;;;;;;5096448;28;20119;-64
2023/09/08 01:59:23;;;;;;;3.60;2.28;;;17.00;1.00;;;;;;5096544;28;20548;-64
2023/09/08 02:01:49;;;;;;;1.98;1.88;;;17.00;1.00;;;;;;5078203;28;20415;-64
2023/09/08 02:04:14;;;;;;;2.00;1.90;;;17.00;1.00;;;;;;5112156;28;20048;-64
2023/09/08 02:06:40;;;;;;;1.90;1.80;;;17.00;1.00;;;;;;5096023;28;20062;-64
2023/09/08 02:09:05;;;;;;;2.08;1.90;;;17.00;1.00;;;;;;5096368;28;20071;-64
2023/09/08 02:11:31;;;;;;;2.40;2.20;;;17.00;1.00;;;;;;5096305;28;20368;-64
2023/09/08 02:13:57;;;;;;;1.70;1.60;;;17.00;1.00;;;;;;5096269;28;20028;-64
2023/09/08 02:16:22;;;;;;;1.98;1.83;;;17.00;1.00;;;;;;5096275;28;20085;-65
2023/09/08 02:18:48;;;;;;;2.00;1.90;;;17.00;1.00;;;;;;5096339;28;20088;-64
2023/09/08 02:21:13;;;;;;;1.58;1.48;;;17.00;1.00;;;;;;5095822;28;20040;-64
2023/09/08 02:23:39;;;;;;;2.25;1.83;;;17.00;1.00;;;;;;5096177;28;20039;-64
2023/09/08 02:26:04;;;;;;;2.13;1.92;;;17.00;1.00;;;;;;5096025;28;20125;-64
2023/09/08 02:28:30;;;;;;;1.80;1.70;;;16.90;1.00;;;;;;5096094;28;20395;-64
2023/09/08 02:30:56;;;;;;;1.88;1.77;;;17.00;1.00;;;;;;5094511;28;20048;-64
2023/09/08 02:33:21;;;;;;;1.70;1.60;;;16.90;1.00;;;;;;5095890;28;20484;-64
2023/09/08 02:35:47;;;;;;;2.15;1.95;;;16.90;1.00;;;;;;5095886;28;20486;-64
2023/09/08 02:38:13;;;;;;;1.70;1.60;;;16.90;1.00;;;;;;5095846;28;20047;-64
2023/09/08 02:40:38;;;;;;;1.90;1.80;;;17.80;1.00;;;;;;5095704;28;20487;-64
2023/09/08 02:43:04;;;;;;;2.20;2.10;;;16.90;1.00;;;;;;5095501;28;20032;-64
2023/09/08 02:45:30;;;;;;;1.73;1.63;;;16.90;1.00;;;;;;5094724;28;20081;-64
2023/09/08 02:47:56;;;;;;;2.15;1.98;;;16.90;1.00;;;;;;5094182;28;20083;-64
2023/09/08 02:50:22;;;;;;;2.30;2.20;;;16.90;1.00;;;;;;5095348;28;20071;-64
2023/09/08 02:52:47;;;;;;;1.88;1.75;;;16.90;1.00;;;;;;5094385;28;20483;-65
2023/09/08 02:55:13;;;;;;;1.73;1.63;;;16.90;1.00;;;;;;5094281;28;20107;-64
2023/09/08 02:57:39;;;;;;;1.98;1.75;;;16.80;1.00;;;;;;5094025;28;20040;-64
2023/09/08 03:00:07;;;;;;;1.80;1.70;;;17.30;1.00;;;;;;5110909;28;20036;-64
2023/09/08 03:02:33;;;;;;;2.00;1.83;;;16.80;1.00;;;;;;5095433;28;20047;-64
2023/09/08 03:04:58;;;;;;;2.38;2.17;;;16.80;1.00;;;;;;5094849;28;20068;-64
2023/09/08 03:07:24;;;;;;;2.38;2.17;;;16.70;1.00;;;;;;5095267;28;20046;-65
2023/09/08 03:09:49;;;;;;;2.53;2.33;;;16.70;1.00;;;;;;5094987;28;20046;-64
2023/09/08 03:12:15;;;;;;;2.03;1.92;;;16.70;1.00;;;;;;5110601;28;20476;-64
2023/09/08 03:14:41;;;;;;;2.17;1.98;;;16.70;1.00;;;;;;5095226;28;20377;-64
2023/09/08 03:17:06;;;;;;;2.33;1.90;;;17.00;1.00;;;;;;5095064;28;20043;-64
2023/09/08 03:19:32;;;;;;;2.75;2.05;;;16.60;1.00;;;;;;5095137;28;20407;-64
2023/09/08 03:21:57;;;;;;;2.20;2.00;;;17.70;1.00;;;;;;5094688;28;20036;-64
2023/09/08 03:24:23;;;;;;;2.40;2.25;;;16.60;1.00;;;;;;5110417;28;20051;-64
2023/09/08 03:26:48;;;;;;;2.60;2.40;;;16.60;1.40;;;;;;5093435;28;20035;-68
2023/09/08 03:29:14;;;;;;;1.98;1.88;;;16.50;3.20;;;;;;5110336;28;20047;-65
2023/09/08 03:31:40;;;;;;;2.00;1.90;;;16.50;4.00;;;;;;5095023;28;20105;-67
2023/09/08 03:34:05;;;;;;;2.25;2.05;;;16.50;7.30;;;;;;5094762;28;20036;-67
2023/09/08 03:36:35;;;;;;;2.25;2.05;;;16.50;2.90;;;;;;5094744;28;20032;-67
2023/09/08 03:39:01;;;;;;;3.22;2.10;;;16.50;11.70;;;;;;5094709;28;20055;-68
2023/09/08 03:41:27;;;;;;;1.80;1.70;;;16.50;14.70;;;;;;5094535;28;20503;-68
2023/09/08 03:43:52;;;;;;;2.38;2.17;;;16.40;13.00;;;;;;5094591;28;20036;-67
2023/09/08 03:46:18;;;;;;;1.98;1.88;;;16.40;10.40;;;;;;5094274;28;20067;-67
2023/09/08 03:48:44;;;;;;;2.17;2.03;;;16.30;14.20;;;;;;5094169;28;20055;-67
2023/09/08 03:51:09;;;;;;;2.45;2.25;;;16.50;13.20;;;;;;5094128;28;20048;-67
2023/09/08 03:53:35;;;;;;;2.47;2.00;;;16.30;19.70;;;;;;5110271;28;20405;-67
2023/09/08 03:56:00;;;;;;;2.33;2.13;;;16.30;17.20;;;;;;5109872;28;20119;-66
2023/09/08 03:58:26;;;;;;;2.20;2.00;;;16.30;18.80;;;;;;5093630;28;20388;-67
2023/09/08 04:00:52;;;;;;;2.42;1.83;;;16.30;18.30;;;;;;5094307;28;20047;-67
2023/09/08 04:03:17;;;;;;;1.85;1.75;;;16.30;21.00;;;;;;5094206;28;20044;-67
2023/09/08 04:05:43;;;;;;;2.10;1.92;;;16.30;27.70;;;;;;5093985;28;20488;-67
2023/09/08 04:08:08;;;;;;;1.95;1.85;;;16.30;24.40;;;;;;5109883;28;20453;-66
2023/09/08 04:10:34;;;;;;;1.95;1.85;;;16.30;26.20;;;;;;5092683;28;20035;-64
2023/09/08 04:13:00;;;;;;;2.42;2.22;;;16.90;27.80;;;;;;5093984;28;20043;-64
2023/09/08 04:15:25;;;;;;;2.20;2.00;;;16.30;24.90;;;;;;5092867;28;20040;-64
2023/09/08 04:17:51;;;;;;;2.28;2.08;;;16.30;29.90;;;;;;5109649;28;20046;-64
2023/09/08 04:20:17;;;;;;;2.22;1.80;;;16.30;28.50;;;;;;5093825;28;20032;-66
2023/09/08 04:22:42;;;;;;;2.38;2.17;;;16.30;28.40;;;;;;5092339;28;20047;-64
2023/09/08 04:25:08;;;;;;;2.10;2.00;;;16.30;30.00;;;;;;5093779;28;20468;-64
2023/09/08 04:27:35;;;;;;;2.08;1.98;;;16.20;31.60;;;;;;5093864;28;20066;-64
2023/09/08 04:30:00;;;;;;;3.70;1.90;;;16.20;33.50;;;;;;5093466;28;20109;-64
2023/09/08 04:32:26;;;;;;;2.63;2.25;;;16.20;32.80;;;;;;5093669;28;20043;-64
2023/09/08 04:34:51;;;;;;;2.20;2.10;;;16.90;33.60;;;;;;5092487;28;20036;-64
2023/09/08 04:37:17;;;;;;;2.10;2.00;;;16.20;32.90;;;;;;5109056;28;20537;-64
2023/09/08 04:39:43;;;;;;;2.55;2.03;;;16.20;34.30;;;;;;5093563;28;20040;-64
2023/09/08 04:42:10;;;;;;;2.08;1.90;;;16.20;35.60;;;;;;5093675;28;20084;-64
2023/09/08 04:44:35;;;;;;;2.40;2.20;;;16.20;39.70;;;;;;5092049;28;20051;-64
2023/09/08 04:47:01;;;;;;;2.35;2.15;;;16.10;43.10;;;;;;5108822;28;20036;-64
2023/09/08 04:49:28;;;;;;;2.50;2.30;;;16.10;40.10;;;;;;5075041;28;20126;-64
2023/09/08 04:51:53;;;;;;;2.25;2.05;;;16.10;46.10;;;;;;5091771;28;20051;-64
2023/09/08 04:54:19;;;;;;;2.38;2.17;;;16.10;43.10;;;;;;5093129;28;20040;-64
2023/09/08 04:56:45;;;;;;;2.15;2.05;;;16.10;42.50;;;;;;5093362;28;20117;-65
2023/09/08 04:59:11;;;;;;;2.55;2.35;;;16.10;40.80;;;;;;5093378;28;20090;-64
2023/09/08 05:01:37;;;;;;;2.20;2.10;;;16.10;41.20;;;;;;5108944;28;20044;-64
2023/09/08 05:04:04;;;;;;;2.60;2.40;;;16.10;43.20;;;;;;5092986;28;20036;-64
2023/09/08 05:06:29;;;;;;;2.10;2.00;;;16.10;41.50;;;;;;5092944;28;20060;-64
2023/09/08 05:08:55;;;;;;;2.55;2.35;;;16.20;43.60;;;;;;5092917;28;20047;-64
2023/09/08 05:11:21;;;;;;;2.05;1.95;;;16.10;46.60;;;;;;5093132;28;20032;-64
2023/09/08 05:13:46;;;;;;;2.90;2.70;;;16.10;48.60;;;;;;5108513;28;20054;-65
2023/09/08 05:16:12;;;;;;;2.28;1.90;;;16.10;46.30;;;;;;5108479;28;20475;-64
2023/09/08 05:18:39;;;;;;;2.47;2.30;;;16.10;47.30;;;;;;5093211;28;20040;-64
2023/09/08 05:21:04;;;;;;;3.15;2.38;;;16.10;47.10;;;;;;5091891;28;20076;-66
2023/09/08 05:23:30;;;;;;;2.47;2.28;;;16.10;44.50;;;;;;5093118;28;20091;-66
2023/09/08 05:25:56;;;;;;;2.53;2.33;;;16.10;52.10;;;;;;5093034;28;20032;-67
2023/09/08 05:28:21;;;;;;;5.20;2.55;;;16.10;50.20;;;;;;5093020;28;20044;-69
2023/09/08 05:30:47;;;;;;;2.33;2.05;;;16.10;47.60;;;;;;5093167;28;20040;-67
2023/09/08 05:33:12;;;;;;;2.63;2.42;;;16.20;47.20;;;;;;5093063;28;20032;-67
2023/09/08 05:35:38;;;;;;;2.33;2.13;;;16.20;46.10;;;;;;5091786;28;20036;-66
2023/09/08 05:38:05;;;;;;;2.40;2.20;;;16.10;46.80;;;;;;5092695;28;20029;-67
2023/09/08 05:40:30;;;;;;;2.30;2.10;;;16.10;47.60;;;;;;5092834;28;20415;-66
2023/09/08 05:42:56;;;;;;;2.20;2.10;;;16.20;47.30;;;;;;5092830;28;20042;-68
2023/09/08 05:45:22;;;;;;;3.00;2.53;;;16.20;48.40;;;;;;5092718;28;20540;-67
2023/09/08 05:47:49;;;;;;;2.65;2.45;;;16.30;47.10;;;;;;5091572;28;20112;-66
2023/09/08 05:50:15;;;;;;;3.35;2.20;;;16.30;49.40;;;;;;5091500;28;20446;-64
2023/09/08 05:52:40;;;;;;;2.50;2.30;;;16.30;46.00;;;;;;5108103;28;20052;-63
2023/09/08 05:55:06;;;;;;;2.15;2.05;;;16.40;45.50;;;;;;5092494;28;20089;-64
2023/09/08 05:57:32;;;;;;;2.53;2.33;;;16.40;45.80;;;;;;5091474;28;20082;-65
2023/09/08 05:59:57;;;;;;;2.65;2.45;;;16.50;43.70;;;;;;5108198;28;20072;-65
2023/09/08 06:02:23;;;;;;;2.60;2.30;;;16.40;45.00;;;;;;5091124;28;20040;-64
2023/09/08 06:04:48;;;;;;;2.45;2.25;;;16.50;47.00;;;;;;5108023;28;20044;-64
2023/09/08 06:07:14;;;;;;;2.90;2.70;;;16.60;44.30;;;;;;5092249;28;20043;-65
2023/09/08 06:09:40;;;;;;;2.05;1.85;;;16.60;41.80;;;;;;5092253;28;20533;-66
2023/09/08 06:12:06;;;;;;;2.45;2.25;;;16.60;38.80;;;;;;5092145;28;20044;-64
2023/09/08 06:14:31;;;;;;;2.33;2.10;;;16.70;35.60;;;;;;5092437;28;20040;-65
2023/09/08 06:16:57;;;;;;;2.33;2.13;;;16.80;31.40;;;;;;5092480;28;20480;-66
2023/09/08 06:19:22;;;;;;;2.35;2.15;;;16.80;33.30;;;;;;5107803;28;20036;-64
2023/09/08 06:21:48;;;;;;;2.08;1.98;;;16.90;26.60;;;;;;5110655;28;20054;-65
2023/09/08 06:24:14;;;;;;;2.67;2.47;;;17.00;24.30;;;;;;5096146;28;20487;-66
2023/09/08 06:26:39;;;;;;;2.50;2.30;;;17.00;19.80;;;;;;5096122;28;20468;-65
2023/09/08 06:29:05;;;;;;;2.53;2.30;;;17.10;15.90;;;;;;5111849;28;20044;-65
2023/09/08 06:31:31;;;;;;;2.10;2.00;;;17.20;8.10;;;;;;5096148;28;20075;-65
2023/09/08 06:33:56;;;;;;;2.60;2.40;;;17.30;1.00;;;;;;5095896;28;20119;-65
2023/09/08 06:36:22;;;;;;;2.42;2.22;;;17.40;1.00;;;;;;5096057;28;20085;-65
2023/09/08 06:38:47;;;;;;;1.90;1.80;;;17.50;1.00;;;;;;5096000;28;20133;-65
2023/09/08 06:41:13;;;;;;;2.13;2.03;;;17.70;1.00;;;;;;5111819;28;20047;-66
2023/09/08 06:43:39;;;;;;;1.80;1.70;;;17.80;1.00;;;;;;5111313;28;20097;-65
2023/09/08 06:46:04;;;;;;;2.45;2.25;;;17.90;1.00;;;;;;5111252;28;20507;-68
2023/09/08 06:48:30;;;;;;;2.28;2.10;;;18.00;1.00;;;;;;5094313;28;20480;-65
2023/09/08 06:50:56;;;;;;;2.50;2.20;;;18.20;1.00;;;;;;5095586;28;20032;-64
2023/09/08 06:53:24;;;;;;;4.22;2.35;;;18.30;1.00;;;;;;5095635;28;20077;-65
2023/09/08 06:55:50;;;;;;;2.00;1.90;;;18.50;1.00;;;;;;5095611;28;20063;-65
2023/09/08 06:58:16;;;;;;;2.53;1.95;;;18.60;1.00;;;;;;5093943;28;20503;-65
2023/09/08 07:00:42;;;;;;;3.53;2.35;;;18.80;1.00;;;;;;5095275;28;20084;-65
2023/09/08 07:03:08;;;;;;;1.80;1.70;;;19.40;1.00;;;;;;5095337;28;20066;-66
2023/09/08 07:05:34;;;;;;;2.25;2.03;;;19.10;99.90;;;;;;5076885;28;20055;-66
2023/09/08 07:08:00;;;;;;;1.90;1.80;;;19.00;99.90;;;;;;5095407;28;20104;-65
2023/09/08 07:10:25;;;;;;;2.10;1.90;;;19.30;99.90;;;;;;5110771;28;20469;-65
2023/09/08 07:12:51;;;;;;;1.73;1.63;;;19.40;99.90;;;;;;5095231;28;20396;-65
2023/09/08 07:15:16;;;;;;;6.55;1.88;;;19.80;99.90;;;;;;5110703;28;20098;-65
2023/09/08 07:17:42;;;;;;;1.83;1.73;;;19.60;99.90;;;;;;5095123;28;20046;-65
2023/09/08 07:20:08;;;;;;;1.75;1.65;;;19.80;99.90;;;;;;5095075;28;20032;-65
2023/09/08 07:22:33;;;;;;;2.03;1.70;;;19.90;99.90;;;;;;5093710;28;20487;-66
2023/09/08 07:24:59;;;;;;;1.60;1.50;;;20.00;99.90;;;;;;5110476;28;20043;-67
2023/09/08 07:27:25;;;;;;;1.70;1.60;;;20.10;99.90;;;;;;5110375;28;20052;-66
2023/09/08 07:29:50;;;;;;;1.98;1.75;;;20.50;99.90;;;;;;5110435;28;20105;-67
2023/09/08 07:32:17;;;;;;;1.60;1.50;;;20.40;29.60;;;;;;5110136;28;20070;-67
2023/09/08 07:34:42;;;;;;;1.33;1.23;;;20.50;1.00;;;;;;5093697;28;20467;-66
2023/09/08 07:37:08;;;;;;;2.00;1.10;;;20.60;1.00;;;;;;5094869;28;20063;-69
2023/09/08 07:39:35;;;;;;;1.60;1.50;;;20.70;1.00;;;;;;5094502;28;20040;-66
2023/09/08 07:42:01;;;;;;;1.52;1.42;;;20.80;1.00;;;;;;5094519;28;20051;-66
2023/09/08 07:44:27;;;;;;;1.45;1.35;;;20.90;1.00;;;;;;5093256;28;20043;-66
2023/09/08 07:46:52;;;;;;;1.35;1.20;;;21.10;99.90;;;;;;5092796;28;20044;-67
2023/09/08 07:49:19;;;;;;;1.48;1.38;;;21.30;99.90;;;;;;5094196;28;20050;-65
2023/09/08 07:51:45;;;;;;;1.48;1.38;;;21.40;99.90;;;;;;5092744;28;20040;-66
2023/09/08 07:54:11;;;;;;;6.95;1.60;;;22.20;1.00;;;;;;5092818;28;20518;-66
2023/09/08 07:56:36;;;;;;;1.42;1.33;;;21.50;99.90;;;;;;5092683;28;20176;-66
2023/09/08 07:59:02;;;;;;;2.85;1.50;;;21.70;11.10;;;;;;5094172;28;20075;-66
2023/09/08 08:01:28;;;;;;;1.50;1.40;;;21.80;99.90;;;;;;5109652;28;20123;-66
2023/09/08 08:03:53;;;;;;;1.27;1.20;;;21.90;1.00;;;;;;5109544;28;20043;-66
2023/09/08 08:06:19;;;;;;;1.90;1.20;;;22.00;1.00;;;;;;5109639;28;20056;-66
2023/09/08 08:08:45;;;;;;;1.40;1.25;;;22.00;99.90;;;;;;5109551;28;20112;-66
2023/09/08 08:11:15;;;;;;;1.30;1.20;;;22.10;99.90;;;;;;5094058;28;20050;-66
2023/09/08 08:13:41;;;;;;;1.45;1.35;;;22.30;1.00;;;;;;5092596;28;20457;-66
2023/09/08 08:16:07;;;;;;;1.30;1.20;;;22.30;99.90;;;;;;5093744;28;20044;-66
2023/09/08 08:18:33;;;;;;;0.90;0.90;;;22.40;1.00;;;;;;5093798;28;20452;-66
2023/09/08 08:21:00;;;;;;;1.55;1.45;;;22.60;1.00;;;;;;5109906;28;20083;-66
2023/09/08 08:23:26;;;;;;;1.70;1.60;;;22.70;99.90;;;;;;5092703;28;20068;-66
2023/09/08 08:25:52;;;;;;;2.53;1.40;;;22.80;99.90;;;;;;5093920;28;20109;-66
2023/09/08 08:28:17;;;;;;;1.42;1.33;;;22.80;99.90;;;;;;5093452;28;20032;-66
2023/09/08 08:30:43;;;;;;;1.13;1.05;;;23.00;1.00;;;;;;5093469;28;20043;-66
2023/09/08 08:33:09;;;;;;;1.30;1.20;;;23.10;1.00;;;;;;5093375;28;20097;-65
2023/09/08 08:35:34;;;;;;;1.08;1.02;;;23.20;99.90;;;;;;5109143;28;20040;-66
2023/09/08 08:38:00;;;;;;;1.10;1.05;;;23.30;99.90;;;;;;5093635;28;20036;-66
2023/09/08 08:40:26;;;;;;;1.20;1.10;;;23.40;99.90;;;;;;5093572;28;20069;-66
2023/09/08 08:42:58;;;;;;;1.38;1.08;;;23.90;99.90;;;;;;5093050;28;20480;-66
2023/09/08 08:45:25;;;;;;;1.42;1.27;;;23.50;96.80;;;;;;5091803;28;20036;-67
2023/09/08 08:47:51;;;;;;;1.77;1.40;;;23.50;97.40;;;;;;5093399;28;20040;-66
2023/09/08 08:50:18;;;;;;;1.33;1.23;;;23.50;1.00;;;;;;5093460;28;20400;-66
2023/09/08 08:52:44;;;;;;;1.20;1.10;;;23.60;1.00;;;;;;5091969;28;20487;-66
2023/09/08 08:55:11;;;;;;;1.35;1.20;;;23.70;1.00;;;;;;5092997;28;20044;-66
2023/09/08 08:57:38;;;;;;;1.77;1.42;;;23.70;1.00;;;;;;5092260;28;20040;-66
2023/09/08 09:00:10;;;;;;;1.13;1.10;;;23.80;1.00;;;;;;5093557;28;20036;-66
2023/09/08 09:02:40;;;;;;;1.30;1.20;;;23.90;99.90;;;;;;5095567;28;20514;-66
2023/09/08 09:05:08;;;;;;;1.73;1.48;;;24.00;99.90;;;;;;5094004;28;20051;-66
2023/09/08 09:07:33;;;;;;;1.13;1.13;;;24.10;77.10;;;;;;5093391;28;20048;-66
2023/09/08 09:09:59;;;;;;;1.70;1.48;;;25.00;34.90;;;;;;5093158;28;20051;-66
2023/09/08 09:12:24;;;;;;;1.15;1.05;;;24.20;1.00;;;;;;5093025;28;20552;-66
2023/09/08 09:14:54;;;;;;;1.42;1.30;;;24.20;1.00;;;;;;5093159;28;20406;-66
2023/09/08 09:17:19;;;;;;;1.30;1.20;;;24.30;1.00;;;;;;5092817;28;20097;-66
2023/09/08 09:19:45;;;;;;;3.10;1.23;;;24.30;1.00;;;;;;5092700;28;20032;-66
2023/09/08 09:22:11;;;;;;;1.20;1.10;;;24.20;99.90;;;;;;5092570;28;20040;-66
2023/09/08 09:24:43;;;;;;;0.70;0.70;;;24.40;99.90;;;;;;5092600;28;20039;-66
2023/09/08 09:27:10;;;;;;;0.98;0.98;;;24.40;99.90;;;;;;5092982;28;20090;-66
2023/09/08 09:29:46;;;;;;;1.20;1.10;;;24.40;99.90;;;;;;5093072;28;20040;-66
2023/09/08 09:32:12;;;;;;;0.98;0.98;;;24.30;99.90;;;;;;5092712;28;20040;-66
2023/09/08 09:34:49;;;;;;;1.20;1.10;;;24.50;99.90;;;;;;5092742;28;20082;-66
2023/09/08 09:37:15;;;;;;;1.13;1.02;;;24.60;99.90;;;;;;5091479;28;20063;-66
2023/09/08 09:39:41;;;;;;;1.05;1.02;;;24.70;99.90;;;;;;5074614;28;20040;-66
2023/09/08 09:42:06;;;;;;;1.85;1.65;;;24.70;99.90;;;;;;5091644;28;20075;-66
2023/09/08 09:44:32;;;;;;;2.53;1.85;;;24.80;99.90;;;;;;5092532;28;20044;-65
2023/09/08 09:47:00;;;;;;;2.33;1.15;;;24.80;99.90;;;;;;5092813;28;20029;-65
2023/09/08 09:49:31;;;;;;;1.38;1.20;;;24.90;99.90;;;;;;5092344;28;20446;-65
2023/09/08 09:51:58;;;;;;;10.38;7.55;;;25.00;99.90;;;;;;5091075;28;20119;-65
2023/09/08 09:54:24;;;;;;;2.25;2.05;;;25.00;99.90;;;;;;5092214;28;20045;-66
2023/09/08 09:56:51;;;;;;;1.35;1.25;;;25.20;99.90;;;;;;5095626;28;20036;-65
2023/09/08 09:59:17;;;;;;;1.40;1.25;;;25.40;99.90;;;;;;5096665;28;20036;-65
2023/09/08 10:01:43;;;;;;;1.70;1.50;;;25.30;99.90;;;;;;5096316;28;20043;-65
2023/09/08 10:04:10;;;;;;;2.58;1.00;;;25.50;99.90;;;;;;5096485;28;20123;-65
2023/09/08 10:06:37;;;;;;;1.35;1.25;;;25.50;99.90;;;;;;5096028;28;20052;-66
2023/09/08 10:09:04;;;;;;;2.05;1.40;;;25.60;99.90;;;;;;5096051;28;20043;-67
2023/09/08 10:11:52;;;;;;;1.67;1.13;;;25.70;99.90;;;;;;5096048;28;20062;-65
2023/09/08 10:14:18;;;;;;;0.90;0.90;;;25.90;99.90;;;;;;5095847;28;20127;-65
2023/09/08 10:16:49;;;;;;;1.40;1.30;;;26.00;99.90;;;;;;5096190;28;20535;-65
2023/09/08 10:19:16;;;;;;;1.30;1.20;;;26.00;99.90;;;;;;5096150;28;20048;-64
2023/09/08 10:21:46;;;;;;;2.30;1.83;;;26.20;99.90;;;;;;5095925;28;20040;-64
2023/09/08 10:24:23;;;;;;;1.52;1.42;;;26.30;99.90;;;;;;5094783;28;20376;-64
2023/09/08 10:27:04;;;;;;;1.20;1.10;;;26.30;99.90;;;;;;5095839;28;20411;-65
2023/09/08 10:29:31;;;;;;;1.67;1.58;;;26.40;99.90;;;;;;5095940;28;20368;-64
2023/09/08 10:31:57;;;;;;;2.70;1.35;;;26.40;99.90;;;;;;5095878;28;20048;-64
2023/09/08 10:34:25;;;;;;;1.38;1.27;;;26.50;99.90;;;;;;5095906;28;20422;-65
2023/09/08 10:36:51;;;;;;;1.58;1.40;;;26.90;99.90;;;;;;5096003;28;20083;-64
2023/09/08 10:39:38;;;;;;;1.33;1.23;;;26.50;99.90;;;;;;5095966;28;20032;-65
2023/09/08 10:42:16;;;;;;;1.10;0.90;;;26.70;99.90;;;;;;5095941;28;20047;-66
2023/09/08 10:45:13;;;;;;;1.30;1.20;;;26.70;99.90;;;;;;5112009;28;20040;-66
2023/09/08 10:47:45;;;;;;;1.40;1.30;;;26.70;99.90;;;;;;5094417;28;20040;-66
2023/09/08 10:50:17;;;;;;;1.42;1.33;;;26.80;99.90;;;;;;5095686;28;20052;-66
2023/09/08 10:52:43;;;;;;;1.20;1.10;;;26.70;99.90;;;;;;5095693;28;20489;-66
2023/09/08 10:55:10;;;;;;;1.25;1.15;;;26.70;99.90;;;;;;5095643;28;20044;-66
2023/09/08 10:57:36;;;;;;;1.25;1.15;;;26.70;99.90;;;;;;5094125;28;20085;-66
2023/09/08 11:00:11;;;;;;;1.23;1.02;;;27.00;99.90;;;;;;5095527;28;20039;-66
2023/09/08 11:02:50;;;;;;;1.25;1.15;;;26.90;99.90;;;;;;5095079;28;20101;-66
2023/09/08 11:05:16;;;;;;;1.30;1.20;;;26.90;99.90;;;;;;5094998;28;20083;-66
2023/09/08 11:07:43;;;;;;;1.15;1.10;;;26.90;99.90;;;;;;5094536;28;20044;-66
2023/09/08 11:10:10;;;;;;;1.20;1.10;;;27.00;99.90;;;;;;5093876;28;20472;-66
2023/09/08 11:12:36;;;;;;;1.98;1.80;;;27.00;99.90;;;;;;5094830;28;20115;-66
2023/09/08 11:15:05;;;;;;;2.80;1.40;;;27.00;99.90;;;;;;5095081;28;20128;-66
2023/09/08 11:17:35;;;;;;;1.60;1.30;;;27.10;99.90;;;;;;5095058;28;20062;-68
2023/09/08 11:20:10;;;;;;;1.25;1.15;;;27.10;99.90;;;;;;5093795;28;20050;-67
2023/09/08 11:22:37;;;;;;;1.85;1.67;;;27.10;99.90;;;;;;5096775;28;20407;-67
2023/09/08 11:25:06;;;;;;;1.85;1.25;;;27.20;99.90;;;;;;5095027;28;20067;-67
2023/09/08 11:27:32;;;;;;;1.40;1.30;;;27.20;99.90;;;;;;5093303;28;20048;-67
2023/09/08 11:29:58;;;;;;;1.13;1.10;;;27.20;99.90;;;;;;5093201;28;20093;-66
2023/09/08 11:32:24;;;;;;;1.63;1.35;;;27.30;99.90;;;;;;5094628;28;20047;-67
2023/09/08 11:34:50;;;;;;;1.67;1.02;;;27.30;99.90;;;;;;5094608;28;20040;-67
2023/09/08 11:37:18;;;;;;;1.20;1.10;;;27.20;99.90;;;;;;5094311;28;20472;-69
2023/09/08 11:39:45;;;;;;;1.35;1.25;;;27.50;99.90;;;;;;5094275;28;20028;-68
2023/09/08 11:42:13;;;;;;;1.20;1.10;;;27.40;99.90;;;;;;5094505;28;20392;-67
2023/09/08 11:44:39;;;;;;;1.23;1.08;;;27.60;99.90;;;;;;5094224;28;20086;-67
2023/09/08 11:47:09;;;;;;;1.50;1.40;;;27.50;99.90;;;;;;5093149;28;20545;-65
2023/09/08 11:49:36;;;;;;;1.30;1.15;;;27.50;99.90;;;;;;5094189;28;20115;-66
2023/09/08 11:52:06;;;;;;;1.20;1.10;;;27.60;99.90;;;;;;5094125;28;20047;-65
2023/09/08 11:54:33;;;;;;;1.13;1.02;;;27.60;99.90;;;;;;5094004;28;20509;-65
2023/09/08 11:57:04;;;;;;;1.48;1.08;;;27.60;99.90;;;;;;5075858;28;20119;-65
2023/09/08 11:59:32;;;;;;;1.25;1.15;;;27.70;99.90;;;;;;5093965;28;20050;-64
2023/09/08 12:01:58;;;;;;;0.80;0.80;;;28.20;99.90;;;;;;5092750;28;20450;-65
2023/09/08 12:04:24;;;;;;;1.25;1.00;;;27.80;99.90;;;;;;5093865;28;20076;-65
2023/09/08 12:06:51;;;;;;;3.90;1.30;;;27.70;99.90;;;;;;5093614;28;20086;-64
2023/09/08 12:09:16;;;;;;;1.00;0.90;;;27.70;99.90;;;;;;5093665;28;20090;-64
2023/09/08 12:11:43;;;;;;;1.45;1.05;;;27.80;99.90;;;;;;5075569;28;20472;-65
2023/09/08 12:14:13;;;;;;;1.30;1.20;;;27.80;99.90;;;;;;5093777;28;20044;-63
2023/09/08 12:16:40;;;;;;;1.67;1.20;;;27.90;99.90;;;;;;5092392;28;20127;-63
2023/09/08 12:19:07;;;;;;;1.15;1.00;;;28.40;99.90;;;;;;5092916;28;20402;-63
2023/09/08 12:21:53;;;;;;;1.30;1.20;;;27.90;99.90;;;;;;5093709;28;20467;-63
2023/09/08 12:24:19;;;;;;;1.00;1.00;;;27.90;99.90;;;;;;5093846;28;20089;-63
2023/09/08 12:26:44;;;;;;;1.00;1.00;;;28.00;99.90;;;;;;5093373;28;20487;-64
2023/09/08 12:29:13;;;;;;;1.30;1.20;;;28.00;99.90;;;;;;5093672;28;20032;-64
2023/09/08 12:31:39;;;;;;;1.50;1.30;;;28.00;99.90;;;;;;5093798;28;20046;-65
2023/09/08 12:34:04;;;;;;;0.95;0.95;;;28.00;99.90;;;;;;5109036;28;20036;-71
2023/09/08 12:36:30;;;;;;;1.08;1.08;;;28.00;99.90;;;;;;5109257;28;20126;-65
2023/09/08 12:38:56;;;;;;;1.73;1.20;;;28.00;99.90;;;;;;5093977;28;20039;-65
2023/09/08 12:41:21;;;;;;;1.20;1.10;;;28.00;99.90;;;;;;5092384;28;20601;-64
2023/09/08 12:43:47;;;;;;;0.90;0.90;;;27.70;99.90;;;;;;5093345;28;20036;-65
2023/09/08 12:46:12;;;;;;;2.13;1.00;;;28.10;99.90;;;;;;5108867;28;20047;-65
2023/09/08 12:48:38;;;;;;;1.20;1.10;;;28.40;99.90;;;;;;5093411;28;20038;-64